sensor_id;sensor_type;location;lat;lon;timestamp;temperature;humidity
75113;DHT22;63692;47.338;8.520;2023-12-28T05:32:48;3.80;99.90
75113;DHT22;63692;47.338;8.520;2023-12-28T05:35:14;3.70;99.90
75113;DHT22;63692;47.338;8.520;2023-12-28T05:37:39;3.50;99.90
75113;DHT22;63692;47.338;8.520;2023-12-28T05:40:05;3.50;99.90
75113;DHT22;63692;47.338;8.520;2023-12-28T05:42:31;3.50;99.90
75113;DHT22;63692;47.338;8.520;2023-12-28T05:44:57;3.50;99.90
75113;DHT22;63692;47.338;8.520;2023-12-28T05:52:25;3.60;99.90
75113;DHT22;63692;47.338;8.520;2023-12-28T05:54:50;3.70;99.90
75113;DHT22;63692;47.338;8.520;2023-12-28T08:31:20;2.90;99.90
75113;DHT22;63692;47.338;8.520;2023-12-28T08:33:47;2.90;99.90
75113;DHT22;63692;47.338;8.520;2023-12-28T08:38:53;3.00;99.90
75113;DHT22;63692;47.338;8.520;2023-12-28T08:41:22;3.00;99.90
75113;DHT22;63692;47.338;8.520;2023-12-28T08:43:49;3.00;99.90
75113;DHT22;63692;47.338;8.520;2023-12-28T08:46:15;3.00;99.90
75113;DHT22;63692;47.338;8.520;2023-12-28T08:48:42;3.10;99.90
75113;DHT22;63692;47.338;8.520;2023-12-28T08:51:09;3.20;99.90
75113;DHT22;63692;47.338;8.520;2023-12-28T08:53:35;3.20;99.90
75113;DHT22;63692;47.338;8.520;2023-12-28T08:56:00;3.30;99.90
75113;DHT22;63692;47.338;8.520;2023-12-28T08:58:26;3.30;99.90
75113;DHT22;63692;47.338;8.520;2023-12-28T09:00:51;3.40;99.90
75113;DHT22;63692;47.338;8.520;2023-12-28T09:03:17;3.40;99.90
75113;DHT22;63692;47.338;8.520;2023-12-28T09:05:43;3.50;99.90
75113;DHT22;63692;47.338;8.520;2023-12-28T09:08:08;3.50;99.90
75113;DHT22;63692;47.338;8.520;2023-12-28T09:10:34;3.60;99.90
75113;DHT22;63692;47.338;8.520;2023-12-28T09:13:00;3.60;99.90
75113;DHT22;63692;47.338;8.520;2023-12-28T09:15:25;3.60;99.90
75113;DHT22;63692;47.338;8.520;2023-12-28T09:17:51;3.60;99.90
75113;DHT22;63692;47.338;8.520;2023-12-28T09:20:18;3.60;99.90
75113;DHT22;63692;47.338;8.520;2023-12-28T09:22:44;3.70;99.90
75113;DHT22;63692;47.338;8.520;2023-12-28T09:25:09;3.70;99.90
75113;DHT22;63692;47.338;8.520;2023-12-28T09:27:35;3.70;99.90
75113;DHT22;63692;47.338;8.520;2023-12-28T09:30:01;3.80;99.90
75113;DHT22;63692;47.338;8.520;2023-12-28T09:32:26;3.80;99.90
75113;DHT22;63692;47.338;8.520;2023-12-28T09:34:52;3.80;99.90
75113;DHT22;63692;47.338;8.520;2023-12-28T09:37:18;3.80;99.90
75113;DHT22;63692;47.338;8.520;2023-12-28T09:39:43;3.80;99.90
75113;DHT22;63692;47.338;8.520;2023-12-28T09:42:25;3.90;99.90
75113;DHT22;63692;47.338;8.520;2023-12-28T09:44:52;3.90;99.90
75113;DHT22;63692;47.338;8.520;2023-12-28T09:47:17;4.00;99.90
75113;DHT22;63692;47.338;8.520;2023-12-28T09:49:43;4.00;99.90
75113;DHT22;63692;47.338;8.520;2023-12-28T09:52:09;4.10;99.90
75113;DHT22;63692;47.338;8.520;2023-12-28T09:54:35;4.10;99.90
75113;DHT22;63692;47.338;8.520;2023-12-28T09:57:01;4.20;99.90
75113;DHT22;63692;47.338;8.520;2023-12-28T09:59:27;4.20;99.90
75113;DHT22;63692;47.338;8.520;2023-12-28T10:01:55;4.20;99.90
75113;DHT22;63692;47.338;8.520;2023-12-28T10:04:21;4.30;99.90
75113;DHT22;63692;47.338;8.520;2023-12-28T10:06:47;4.30;99.90
75113;DHT22;63692;47.338;8.520;2023-12-28T10:09:13;4.40;99.90
75113;DHT22;63692;47.338;8.520;2023-12-28T10:11:38;4.30;99.90
75113;DHT22;63692;47.338;8.520;2023-12-28T10:14:04;4.30;99.90
75113;DHT22;63692;47.338;8.520;2023-12-28T10:16:30;4.30;99.90
75113;DHT22;63692;47.338;8.520;2023-12-28T10:18:56;4.40;99.90
75113;DHT22;63692;47.338;8.520;2023-12-28T10:21:23;4.40;99.90
75113;DHT22;63692;47.338;8.520;2023-12-28T10:23:49;4.40;99.90
75113;DHT22;63692;47.338;8.520;2023-12-28T10:26:17;4.40;99.90
75113;DHT22;63692;47.338;8.520;2023-12-28T10:28:43;4.50;99.90
75113;DHT22;63692;47.338;8.520;2023-12-28T10:31:09;4.50;99.90
75113;DHT22;63692;47.338;8.520;2023-12-28T10:33:35;4.60;99.90
75113;DHT22;63692;47.338;8.520;2023-12-28T10:36:05;4.70;99.90
75113;DHT22;63692;47.338;8.520;2023-12-28T10:38:34;4.70;99.90
75113;DHT22;63692;47.338;8.520;2023-12-28T10:41:06;4.80;99.90
75113;DHT22;63692;47.338;8.520;2023-12-28T10:43:39;5.00;99.90
75113;DHT22;63692;47.338;8.520;2023-12-28T10:46:07;5.10;99.90
75113;DHT22;63692;47.338;8.520;2023-12-28T10:48:38;5.10;99.90
75113;DHT22;63692;47.338;8.520;2023-12-28T10:51:07;5.20;99.90
75113;DHT22;63692;47.338;8.520;2023-12-28T10:54:14;5.20;99.90
75113;DHT22;63692;47.338;8.520;2023-12-28T10:56:48;5.30;99.90
75113;DHT22;63692;47.338;8.520;2023-12-28T11:01:51;5.40;99.90
75113;DHT22;63692;47.338;8.520;2023-12-28T11:06:52;5.80;99.90
75113;DHT22;63692;47.338;8.520;2023-12-28T11:11:46;6.40;99.90
75113;DHT22;63692;47.338;8.520;2023-12-28T11:14:12;6.70;99.90
75113;DHT22;63692;47.338;8.520;2023-12-28T11:16:38;6.90;99.90
75113;DHT22;63692;47.338;8.520;2023-12-28T11:19:07;7.10;99.90
75113;DHT22;63692;47.338;8.520;2023-12-28T11:21:33;7.20;99.90
75113;DHT22;63692;47.338;8.520;2023-12-28T11:23:59;7.20;99.90
75113;DHT22;63692;47.338;8.520;2023-12-28T11:26:25;7.20;99.90
75113;DHT22;63692;47.338;8.520;2023-12-28T11:36:26;7.10;99.90
75113;DHT22;63692;47.338;8.520;2023-12-28T11:41:24;7.40;99.90
75113;DHT22;63692;47.338;8.520;2023-12-28T11:43:54;7.60;99.90
75113;DHT22;63692;47.338;8.520;2023-12-28T11:46:23;7.80;99.90
75113;DHT22;63692;47.338;8.520;2023-12-28T11:48:48;8.00;99.90
75113;DHT22;63692;47.338;8.520;2023-12-28T11:51:15;8.10;99.90
75113;DHT22;63692;47.338;8.520;2023-12-28T11:53:43;8.30;99.90
75113;DHT22;63692;47.338;8.520;2023-12-28T11:56:18;8.30;99.90
75113;DHT22;63692;47.338;8.520;2023-12-28T12:06:18;8.60;99.90
75113;DHT22;63692;47.338;8.520;2023-12-28T12:11:12;8.60;99.90
75113;DHT22;63692;47.338;8.520;2023-12-28T12:13:38;8.60;99.90
75113;DHT22;63692;47.338;8.520;2023-12-28T12:16:06;8.70;99.90
75113;DHT22;63692;47.338;8.520;2023-12-28T12:18:33;8.70;99.90
75113;DHT22;63692;47.338;8.520;2023-12-28T12:23:29;8.80;99.90
75113;DHT22;63692;47.338;8.520;2023-12-28T12:25:54;8.90;99.90
75113;DHT22;63692;47.338;8.520;2023-12-28T12:28:20;8.90;99.90
75113;DHT22;63692;47.338;8.520;2023-12-28T12:30:53;9.00;99.90
75113;DHT22;63692;47.338;8.520;2023-12-28T12:33:20;9.10;99.90
75113;DHT22;63692;47.338;8.520;2023-12-28T12:35:47;9.10;99.90
75113;DHT22;63692;47.338;8.520;2023-12-28T12:40:43;9.10;99.90
75113;DHT22;63692;47.338;8.520;2023-12-28T12:43:10;9.00;99.90
75113;DHT22;63692;47.338;8.520;2023-12-28T12:45:36;9.00;99.90
75113;DHT22;63692;47.338;8.520;2023-12-28T12:48:05;9.10;99.90
75113;DHT22;63692;47.338;8.520;2023-12-28T12:50:32;9.00;99.90
75113;DHT22;63692;47.338;8.520;2023-12-28T12:53:01;9.10;99.90
75113;DHT22;63692;47.338;8.520;2023-12-28T12:55:27;9.10;99.90
75113;DHT22;63692;47.338;8.520;2023-12-28T12:57:53;9.10;99.90
75113;DHT22;63692;47.338;8.520;2023-12-28T13:00:21;9.00;99.90
75113;DHT22;63692;47.338;8.520;2023-12-28T13:02:52;9.10;99.90
75113;DHT22;63692;47.338;8.520;2023-12-28T13:05:21;9.10;99.90
75113;DHT22;63692;47.338;8.520;2023-12-28T13:07:47;9.10;99.90
75113;DHT22;63692;47.338;8.520;2023-12-28T13:10:12;9.00;99.90
75113;DHT22;63692;47.338;8.520;2023-12-28T13:12:38;9.00;99.90
75113;DHT22;63692;47.338;8.520;2023-12-28T13:15:04;9.00;99.90
75113;DHT22;63692;47.338;8.520;2023-12-28T13:17:31;8.90;99.90
75113;DHT22;63692;47.338;8.520;2023-12-28T13:19:57;8.80;99.90
75113;DHT22;63692;47.338;8.520;2023-12-28T13:22:22;8.80;99.90
75113;DHT22;63692;47.338;8.520;2023-12-28T13:24:48;8.80;99.90
75113;DHT22;63692;47.338;8.520;2023-12-28T13:27:14;8.70;99.90
75113;DHT22;63692;47.338;8.520;2023-12-28T13:29:40;8.70;99.90
75113;DHT22;63692;47.338;8.520;2023-12-28T13:32:06;8.70;99.90
75113;DHT22;63692;47.338;8.520;2023-12-28T13:34:31;8.70;99.90
75113;DHT22;63692;47.338;8.520;2023-12-28T13:36:57;8.60;99.90
75113;DHT22;63692;47.338;8.520;2023-12-28T13:39:24;8.60;99.90
75113;DHT22;63692;47.338;8.520;2023-12-28T13:41:50;8.40;99.90
75113;DHT22;63692;47.338;8.520;2023-12-28T13:44:16;8.40;99.90
75113;DHT22;63692;47.338;8.520;2023-12-28T13:46:42;8.40;99.90
75113;DHT22;63692;47.338;8.520;2023-12-28T13:49:08;8.40;99.90
75113;DHT22;63692;47.338;8.520;2023-12-28T13:51:35;8.40;99.90
75113;DHT22;63692;47.338;8.520;2023-12-28T13:54:00;8.30;99.90
75113;DHT22;63692;47.338;8.520;2023-12-28T13:56:26;8.30;99.90
75113;DHT22;63692;47.338;8.520;2023-12-28T13:58:52;8.30;99.90
75113;DHT22;63692;47.338;8.520;2023-12-28T14:01:18;8.30;99.90
75113;DHT22;63692;47.338;8.520;2023-12-28T14:03:43;8.20;99.90
75113;DHT22;63692;47.338;8.520;2023-12-28T14:06:10;8.20;99.90
75113;DHT22;63692;47.338;8.520;2023-12-28T14:08:36;8.20;99.90
75113;DHT22;63692;47.338;8.520;2023-12-28T14:11:02;8.10;99.90
75113;DHT22;63692;47.338;8.520;2023-12-28T14:13:28;8.10;99.90
75113;DHT22;63692;47.338;8.520;2023-12-28T14:15:54;8.10;99.90
75113;DHT22;63692;47.338;8.520;2023-12-28T14:18:19;8.10;99.90
75113;DHT22;63692;47.338;8.520;2023-12-28T14:20:45;8.00;99.90
75113;DHT22;63692;47.338;8.520;2023-12-28T14:23:11;8.00;99.90
75113;DHT22;63692;47.338;8.520;2023-12-28T14:25:38;8.00;99.90
75113;DHT22;63692;47.338;8.520;2023-12-28T14:28:03;8.00;99.90
75113;DHT22;63692;47.338;8.520;2023-12-28T14:30:30;8.00;99.90
75113;DHT22;63692;47.338;8.520;2023-12-28T14:32:56;8.00;99.90
75113;DHT22;63692;47.338;8.520;2023-12-28T14:35:22;8.00;99.90
75113;DHT22;63692;47.338;8.520;2023-12-28T14:37:48;8.00;99.90
75113;DHT22;63692;47.338;8.520;2023-12-28T14:40:14;8.00;99.90
75113;DHT22;63692;47.338;8.520;2023-12-28T14:42:40;8.00;99.90
75113;DHT22;63692;47.338;8.520;2023-12-28T14:45:06;8.00;99.90
75113;DHT22;63692;47.338;8.520;2023-12-28T14:47:32;8.00;99.90
75113;DHT22;63692;47.338;8.520;2023-12-28T14:49:58;8.00;99.90
75113;DHT22;63692;47.338;8.520;2023-12-28T14:52:23;8.00;99.90
75113;DHT22;63692;47.338;8.520;2023-12-28T14:54:50;8.00;99.90
75113;DHT22;63692;47.338;8.520;2023-12-28T14:57:22;8.00;99.90
75113;DHT22;63692;47.338;8.520;2023-12-28T14:59:48;8.00;99.90
75113;DHT22;63692;47.338;8.520;2023-12-28T15:02:13;8.00;99.90
75113;DHT22;63692;47.338;8.520;2023-12-28T15:04:39;7.90;99.90
75113;DHT22;63692;47.338;8.520;2023-12-28T15:07:06;8.00;99.90
75113;DHT22;63692;47.338;8.520;2023-12-28T15:09:32;8.00;99.90
75113;DHT22;63692;47.338;8.520;2023-12-28T15:11:58;7.90;99.90
75113;DHT22;63692;47.338;8.520;2023-12-28T15:14:25;7.90;99.90
75113;DHT22;63692;47.338;8.520;2023-12-28T15:16:51;7.90;99.90
75113;DHT22;63692;47.338;8.520;2023-12-28T15:19:17;7.90;99.90
75113;DHT22;63692;47.338;8.520;2023-12-28T15:21:43;7.90;99.90
75113;DHT22;63692;47.338;8.520;2023-12-28T15:24:09;7.90;99.90
75113;DHT22;63692;47.338;8.520;2023-12-28T15:26:35;7.90;99.90
75113;DHT22;63692;47.338;8.520;2023-12-28T15:29:02;7.80;99.90
75113;DHT22;63692;47.338;8.520;2023-12-28T15:31:29;7.80;99.90
75113;DHT22;63692;47.338;8.520;2023-12-28T15:33:55;7.80;99.90
75113;DHT22;63692;47.338;8.520;2023-12-28T15:36:21;7.80;99.90
75113;DHT22;63692;47.338;8.520;2023-12-28T15:38:47;7.80;99.90
75113;DHT22;63692;47.338;8.520;2023-12-28T15:41:13;7.80;99.90
75113;DHT22;63692;47.338;8.520;2023-12-28T15:43:39;7.80;99.90
75113;DHT22;63692;47.338;8.520;2023-12-28T15:46:05;7.70;99.90
75113;DHT22;63692;47.338;8.520;2023-12-28T15:48:30;7.80;99.90
75113;DHT22;63692;47.338;8.520;2023-12-28T15:50:56;7.80;99.90
75113;DHT22;63692;47.338;8.520;2023-12-28T15:53:21;7.70;99.90
75113;DHT22;63692;47.338;8.520;2023-12-28T15:55:47;7.80;99.90
75113;DHT22;63692;47.338;8.520;2023-12-28T15:58:13;7.70;99.90
75113;DHT22;63692;47.338;8.520;2023-12-28T16:00:38;7.70;99.90
75113;DHT22;63692;47.338;8.520;2023-12-28T16:03:04;7.70;99.90
75113;DHT22;63692;47.338;8.520;2023-12-28T16:05:30;7.70;99.90
75113;DHT22;63692;47.338;8.520;2023-12-28T16:07:55;7.60;99.90
75113;DHT22;63692;47.338;8.520;2023-12-28T16:10:22;7.60;99.90
75113;DHT22;63692;47.338;8.520;2023-12-28T16:12:48;7.50;99.90
75113;DHT22;63692;47.338;8.520;2023-12-28T16:20:09;7.40;99.90
75113;DHT22;63692;47.338;8.520;2023-12-28T16:22:35;7.30;99.90
75113;DHT22;63692;47.338;8.520;2023-12-28T16:25:01;7.30;99.90
75113;DHT22;63692;47.338;8.520;2023-12-28T16:27:27;7.30;99.90
75113;DHT22;63692;47.338;8.520;2023-12-28T16:29:53;7.20;99.90
75113;DHT22;63692;47.338;8.520;2023-12-28T16:32:19;7.20;99.90
75113;DHT22;63692;47.338;8.520;2023-12-28T16:34:44;7.20;99.90
75113;DHT22;63692;47.338;8.520;2023-12-28T16:37:10;7.20;99.90
75113;DHT22;63692;47.338;8.520;2023-12-28T16:39:36;7.20;99.90
75113;DHT22;63692;47.338;8.520;2023-12-28T16:42:01;7.20;99.90
75113;DHT22;63692;47.338;8.520;2023-12-28T16:44:27;7.20;99.90
75113;DHT22;63692;47.338;8.520;2023-12-28T16:46:53;7.10;99.90
75113;DHT22;63692;47.338;8.520;2023-12-28T16:49:18;7.10;99.90
75113;DHT22;63692;47.338;8.520;2023-12-28T16:51:46;7.10;99.90
75113;DHT22;63692;47.338;8.520;2023-12-28T16:54:11;7.00;99.90
75113;DHT22;63692;47.338;8.520;2023-12-28T16:56:38;7.00;99.90
75113;DHT22;63692;47.338;8.520;2023-12-28T16:59:04;7.00;99.90
75113;DHT22;63692;47.338;8.520;2023-12-28T17:01:31;6.90;99.90
75113;DHT22;63692;47.338;8.520;2023-12-28T17:03:58;6.90;99.90
75113;DHT22;63692;47.338;8.520;2023-12-28T17:06:24;6.70;99.90
75113;DHT22;63692;47.338;8.520;2023-12-28T17:08:50;6.60;99.90
75113;DHT22;63692;47.338;8.520;2023-12-28T17:11:16;6.50;99.90
75113;DHT22;63692;47.338;8.520;2023-12-28T17:13:43;6.50;99.90
75113;DHT22;63692;47.338;8.520;2023-12-28T17:16:09;6.50;99.90
75113;DHT22;63692;47.338;8.520;2023-12-28T17:18:35;6.50;99.90
75113;DHT22;63692;47.338;8.520;2023-12-28T17:21:01;6.50;99.90
75113;DHT22;63692;47.338;8.520;2023-12-28T17:23:36;6.50;99.90
75113;DHT22;63692;47.338;8.520;2023-12-28T17:28:52;6.60;99.90
75113;DHT22;63692;47.338;8.520;2023-12-28T17:31:19;6.50;99.90
75113;DHT22;63692;47.338;8.520;2023-12-28T17:33:47;6.50;99.90
75113;DHT22;63692;47.338;8.520;2023-12-28T17:36:13;6.50;99.90
75113;DHT22;63692;47.338;8.520;2023-12-28T17:38:39;6.50;99.90
75113;DHT22;63692;47.338;8.520;2023-12-28T17:41:10;6.40;99.90
75113;DHT22;63692;47.338;8.520;2023-12-28T17:43:55;6.40;99.90
75113;DHT22;63692;47.338;8.520;2023-12-28T17:49:06;6.40;99.90
75113;DHT22;63692;47.338;8.520;2023-12-28T17:51:35;6.40;99.90
75113;DHT22;63692;47.338;8.520;2023-12-28T17:54:01;6.40;99.90
75113;DHT22;63692;47.338;8.520;2023-12-28T17:56:28;6.40;99.90
75113;DHT22;63692;47.338;8.520;2023-12-28T17:58:53;6.40;99.90
75113;DHT22;63692;47.338;8.520;2023-12-28T18:01:19;6.40;99.90
75113;DHT22;63692;47.338;8.520;2023-12-28T18:03:45;6.40;99.90
75113;DHT22;63692;47.338;8.520;2023-12-28T18:06:13;6.50;99.90
75113;DHT22;63692;47.338;8.520;2023-12-28T20:03:45;7.10;99.90
75113;DHT22;63692;47.338;8.520;2023-12-28T20:06:10;7.20;99.90
75113;DHT22;63692;47.338;8.520;2023-12-28T20:08:36;7.10;99.90
75113;DHT22;63692;47.338;8.520;2023-12-28T20:11:02;7.10;99.90
75113;DHT22;63692;47.338;8.520;2023-12-28T20:13:27;7.10;99.90
75113;DHT22;63692;47.338;8.520;2023-12-28T20:15:53;7.10;99.90
75113;DHT22;63692;47.338;8.520;2023-12-28T20:18:19;7.10;99.90
75113;DHT22;63692;47.338;8.520;2023-12-28T20:20:45;7.10;99.90
75113;DHT22;63692;47.338;8.520;2023-12-28T20:23:10;7.10;99.90
75113;DHT22;63692;47.338;8.520;2023-12-28T20:25:36;7.00;99.90
75113;DHT22;63692;47.338;8.520;2023-12-28T20:28:03;7.00;99.90
75113;DHT22;63692;47.338;8.520;2023-12-28T20:30:28;7.00;99.90
75113;DHT22;63692;47.338;8.520;2023-12-28T20:32:56;6.90;99.90
75113;DHT22;63692;47.338;8.520;2023-12-28T20:35:22;6.90;99.90
75113;DHT22;63692;47.338;8.520;2023-12-28T20:37:47;6.90;99.90
75113;DHT22;63692;47.338;8.520;2023-12-28T20:40:13;6.90;99.90
75113;DHT22;63692;47.338;8.520;2023-12-28T20:42:38;7.00;99.90
75113;DHT22;63692;47.338;8.520;2023-12-28T20:45:04;6.90;99.90
75113;DHT22;63692;47.338;8.520;2023-12-28T20:47:30;6.90;99.90
75113;DHT22;63692;47.338;8.520;2023-12-28T20:49:56;6.90;99.90
75113;DHT22;63692;47.338;8.520;2023-12-28T20:52:22;6.90;99.90
75113;DHT22;63692;47.338;8.520;2023-12-28T20:54:48;6.80;99.90
75113;DHT22;63692;47.338;8.520;2023-12-28T20:57:16;6.90;99.90
75113;DHT22;63692;47.338;8.520;2023-12-28T20:59:42;6.90;99.90
